| time (UTC) | temp F | wind direction | speed MPH | gust MPH | rain 1hr in | rain 24hr in | rain mn in | humidity % | barometer mb |
| 20260906220026 | 91 | 167 | 2.0 | 8.0 | 0.00 | 0.00 | 0.00 | 51 | 1006.3 |
| 20260906214528 | 91 | 169 | 2.0 | 9.0 | 0.00 | 0.00 | 0.00 | 52 | 1006.5 |
| 20260906213024 | 90 | 164 | 3.0 | 8.0 | 0.00 | 0.00 | 0.00 | 54 | 1006.8 |
| 20260906211517 | 89 | 171 | 3.0 | 8.0 | 0.00 | 0.00 | 0.00 | 54 | 1006.7 |
| 20260906210016 | 88 | 119 | 0.0 | 4.0 | 0.00 | 0.00 | 0.00 | 53 | 1006.9 |
| 20260906204513 | 88 | 148 | 0.0 | 6.0 | 0.00 | 0.00 | 0.00 | 54 | 1007.2 |
| 20260906203012 | 87 | 138 | 5.0 | 9.0 | 0.00 | 0.00 | 0.00 | 54 | 1007.4 |
| 20260906201510 | 87 | 146 | 4.0 | 12.0 | 0.00 | 0.00 | 0.00 | 54 | 1007.6 |
| 20260906200005 | 85 | 151 | 0.0 | 3.0 | 0.00 | 0.00 | 0.00 | 59 | 1007.8 |
| 20260906194501 | 84 | 92 | 0.0 | 0.0 | 0.00 | 0.00 | 0.00 | 61 | 1008.1 |
| 20260906193100 | 83 | 82 | 0.0 | 0.0 | 0.00 | 0.00 | 0.00 | 61 | 1008.3 |
| 20260906191557 | 83 | 137 | 0.0 | 5.0 | 0.00 | 0.00 | 0.00 | 62 | 1008.4 |
| 20260906190112 | 82 | 84 | 1.0 | 7.0 | 0.00 | 0.00 | 0.00 | 60 | 1008.5 |
| 20260906184555 | 82 | 101 | 1.0 | 6.0 | 0.00 | 0.00 | 0.00 | 60 | 1008.6 |
| 20260906183058 | 82 | 119 | 2.0 | 9.0 | 0.00 | 0.00 | 0.00 | 59 | 1008.7 |
| 20260906181553 | 82 | 120 | 1.0 | 6.0 | 0.00 | 0.00 | 0.00 | 59 | 1008.9 |
| 20260906180050 | 82 | 105 | 1.0 | 4.0 | 0.00 | 0.00 | 0.00 | 59 | 1008.9 |
| 20260906174547 | 81 | 74 | 0.0 | 3.0 | 0.00 | 0.00 | 0.00 | 60 | 1008.7 |
| 20260906173045 | 81 | 76 | 0.0 | 3.0 | 0.00 | 0.00 | 0.00 | 60 | 1008.5 |
| 20260906171544 | 81 | 91 | 0.0 | 2.0 | 0.00 | 0.00 | 0.00 | 60 | 1008.5 |
| 20260906170042 | 80 | 71 | 0.0 | 2.0 | 0.00 | 0.00 | 0.00 | 62 | 1008.5 |
| 20260906164539 | 80 | 53 | 0.0 | 0.0 | 0.00 | 0.00 | 0.00 | 62 | 1008.3 |
| 20260906163038 | 79 | 53 | 0.0 | 3.0 | 0.00 | 0.00 | 0.00 | 62 | 1008.3 |
| 20260906161537 | 78 | 90 | 0.0 | 2.0 | 0.00 | 0.00 | 0.00 | 63 | 1008.3 |
| 20260906160042 | 78 | 92 | 0.0 | 0.0 | 0.00 | 0.00 | 0.00 | 64 | 1008.3 |
| 20260906154546 | 77 | 85 | 0.0 | 1.0 | 0.00 | 0.00 | 0.00 | 63 | 1008.4 |
| 20260906153037 | 77 | 85 | 0.0 | 2.0 | 0.00 | 0.00 | 0.00 | 62 | 1008.3 |
| 20260906151534 | 77 | 85 | 0.0 | 1.0 | 0.00 | 0.00 | 0.00 | 63 | 1008.4 |
| 20260906150041 | 76 | 86 | 0.0 | 0.0 | 0.00 | 0.00 | 0.00 | 63 | 1008.3 |
| 20260906144532 | 76 | 86 | 0.0 | 0.0 | 0.00 | 0.00 | 0.00 | 62 | 1008.2 |
| 20260906143029 | 76 | 86 | 0.0 | 0.0 | 0.00 | 0.00 | 0.00 | 61 | 1008.0 |
| 20260906141529 | 76 | 85 | 0.0 | 0.0 | 0.00 | 0.00 | 0.00 | 60 | 1008.0 |
| 20260906140028 | 76 | 85 | 0.0 | 0.0 | 0.00 | 0.00 | 0.00 | 59 | 1007.6 |
| 20260906134540 | 75 | 85 | 0.0 | 0.0 | 0.00 | 0.00 | 0.00 | 60 | 1007.4 |
| 20260906133047 | 75 | 85 | 0.0 | 0.0 | 0.00 | 0.00 | 0.00 | 61 | 1007.3 |
| 20260906131525 | 76 | 84 | 0.0 | 0.0 | 0.00 | 0.00 | 0.00 | 60 | 1007.2 |
| 20260906130024 | 76 | 84 | 0.0 | 0.0 | 0.00 | 0.00 | 0.00 | 57 | 1007.2 |
| 20260906124522 | 76 | 84 | 0.0 | 0.0 | 0.00 | 0.00 | 0.00 | 55 | 1007.1 |
| 20260906123029 | 76 | 84 | 0.0 | 0.0 | 0.00 | 0.00 | 0.00 | 55 | 1007.1 |
| 20260906120054 | 76 | 84 | 0.0 | 0.0 | 0.00 | 0.00 | 0.00 | 51 | 1007.1 |
| 20260906114652 | 76 | 84 | 0.0 | 0.0 | 0.00 | 0.00 | 0.00 | 50 | 1007.3 |
| 20260906113053 | 76 | 84 | 0.0 | 0.0 | 0.00 | 0.00 | 0.00 | 50 | 1007.3 |
| 20260906111555 | 76 | 84 | 0.0 | 0.0 | 0.00 | 0.00 | 0.00 | 50 | 1007.3 |
| 20260906110051 | 76 | 84 | 0.0 | 0.0 | 0.00 | 0.00 | 0.00 | 52 | 1007.3 |
| 20260906104604 | 76 | 84 | 0.0 | 0.0 | 0.00 | 0.00 | 0.00 | 52 | 1007.5 |
| 20260906103047 | 76 | 84 | 0.0 | 0.0 | 0.00 | 0.00 | 0.00 | 50 | 1007.6 |
| 20260906101545 | 77 | 84 | 0.0 | 0.0 | 0.00 | 0.00 | 0.00 | 47 | 1007.6 |
| 20260906100043 | 77 | 84 | 0.0 | 0.0 | 0.00 | 0.00 | 0.00 | 45 | 1007.4 |
| 20260906094540 | 78 | 116 | 0.0 | 2.0 | 0.00 | 0.00 | 0.00 | 42 | 1007.5 |
| 20260906093040 | 78 | 130 | 0.0 | 0.0 | 0.00 | 0.00 | 0.00 | 41 | 1007.3 |
| 20260906091536 | 78 | 130 | 0.0 | 0.0 | 0.00 | 0.00 | 0.00 | 40 | 1007.5 |
| 20260906090038 | 79 | 130 | 0.0 | 0.0 | 0.00 | 0.00 | 0.00 | 39 | 1007.6 |
| 20260906084536 | 79 | 130 | 0.0 | 0.0 | 0.00 | 0.00 | 0.00 | 39 | 1007.7 |
| 20260906083036 | 79 | 130 | 0.0 | 0.0 | 0.00 | 0.00 | 0.00 | 39 | 1007.8 |
| 20260906081532 | 79 | 130 | 0.0 | 0.0 | 0.00 | 0.00 | 0.00 | 38 | 1007.9 |
| 20260906080035 | 79 | 134 | 0.0 | 0.0 | 0.00 | 0.00 | 0.00 | 38 | 1007.9 |
| 20260906074530 | 79 | 134 | 0.0 | 0.0 | 0.00 | 0.00 | 0.00 | 38 | 1008.1 |
| 20260906073033 | 79 | 134 | 0.0 | 0.0 | 0.00 | 0.00 | 0.00 | 39 | 1008.2 |
| 20260906071527 | 79 | 134 | 0.0 | 0.0 | 0.00 | 0.00 | 0.00 | 39 | 1008.1 |
| 20260906070024 | 79 | 134 | 0.0 | 0.0 | 0.00 | 0.00 | 0.00 | 40 | 1008.1 |
| 20260906064524 | 79 | 130 | 0.0 | 2.0 | 0.00 | 0.00 | 0.00 | 39 | 1008.1 |
| 20260906063024 | 80 | 121 | 0.0 | 0.0 | 0.00 | 0.00 | 0.00 | 37 | 1008.3 |
| 20260906061523 | 79 | 121 | 0.0 | 0.0 | 0.00 | 0.00 | 0.00 | 37 | 1008.2 |
| 20260906060022 | 79 | 121 | 0.0 | 0.0 | 0.00 | 0.00 | 0.00 | 38 | 1008.0 |
| 20260906054523 | 79 | 121 | 0.0 | 0.0 | 0.00 | 0.00 | 0.00 | 37 | 1008.0 |
| 20260906053023 | 80 | 121 | 0.0 | 0.0 | 0.00 | 0.00 | 0.00 | 37 | 1008.2 |
| 20260906051524 | 80 | 103 | 0.0 | 0.0 | 0.00 | 0.00 | 0.00 | 37 | 1008.2 |
| 20260906050025 | 80 | 103 | 0.0 | 0.0 | 0.00 | 0.00 | 0.00 | 36 | 1008.3 |
| 20260906044521 | 80 | 103 | 0.0 | 0.0 | 0.00 | 0.00 | 0.00 | 36 | 1008.2 |
| 20260906043020 | 80 | 78 | 0.0 | 0.0 | 0.00 | 0.00 | 0.00 | 36 | 1008.3 |
| 20260906041523 | 80 | 71 | 0.0 | 3.0 | 0.00 | 0.00 | 0.00 | 35 | 1008.3 |
| 20260906040019 | 80 | 82 | 3.0 | 6.0 | 0.00 | 0.00 | 0.00 | 34 | 1008.1 |
| 20260906034518 | 81 | 113 | 0.0 | 5.0 | 0.00 | 0.00 | 0.00 | 33 | 1007.9 |
| 20260906033018 | 81 | 107 | 0.0 | 4.0 | 0.00 | 0.00 | 0.00 | 34 | 1007.9 |
| 20260906031517 | 82 | 90 | 1.0 | 7.0 | 0.00 | 0.00 | 0.00 | 36 | 1007.7 |
| 20260906030017 | 83 | 93 | 4.0 | 7.0 | 0.00 | 0.00 | 0.00 | 35 | 1007.6 |
| 20260906024517 | 83 | 80 | 3.0 | 5.0 | 0.00 | 0.00 | 0.00 | 37 | 1007.6 |
| 20260906023021 | 84 | 113 | 4.0 | 7.0 | 0.00 | 0.00 | 0.00 | 36 | 1007.5 |
| 20260906021516 | 85 | 99 | 2.0 | 7.0 | 0.00 | 0.00 | 0.00 | 32 | 1007.4 |
| 20260906020015 | 86 | 100 | 2.0 | 7.0 | 0.00 | 0.00 | 0.00 | 31 | 1007.3 |
| 20260906014520 | 87 | 89 | 1.0 | 7.0 | 0.00 | 0.00 | 0.00 | 30 | 1007.3 |
| 20260906013021 | 89 | 103 | 5.0 | 9.0 | 0.00 | 0.00 | 0.00 | 28 | 1007.3 |
| 20260906011517 | 90 | 94 | 4.0 | 9.0 | 0.00 | 0.00 | 0.00 | 33 | 1007.3 |
| 20260906010013 | 90 | 56 | 5.0 | 8.0 | 0.00 | 0.00 | 0.00 | 35 | 1007.2 |
| 20260906004512 | 90 | 44 | 4.0 | 9.0 | 0.00 | 0.00 | 0.00 | 35 | 1007.2 |
| 20260906003013 | 91 | 33 | 6.0 | 9.0 | 0.00 | 0.00 | 0.00 | 35 | 1007.2 |
| 20260906001511 | 91 | 61 | 3.0 | 9.0 | 0.00 | 0.00 | 0.00 | 34 | 1007.1 |
| 20260906000011 | 92 | 49 | 6.0 | 11.0 | 0.00 | 0.00 | 0.00 | 33 | 1007.1 |
| 20260905234510 | 93 | 59 | 3.0 | 9.0 | 0.00 | 0.00 | 0.00 | 30 | 1007.0 |
| 20260905233109 | 94 | 49 | 5.0 | 11.0 | 0.00 | 0.00 | 0.00 | 29 | 1007.1 |
| 20260905231509 | 94 | 53 | 5.0 | 10.0 | 0.00 | 0.00 | 0.00 | 29 | 1007.1 |
| 20260905230008 | 94 | 28 | 4.0 | 11.0 | 0.00 | 0.00 | 0.00 | 27 | 1007.0 |
| 20260905224507 | 94 | 80 | 3.0 | 11.0 | 0.00 | 0.00 | 0.00 | 28 | 1007.1 |
| 20260905223006 | 94 | 105 | 4.0 | 10.0 | 0.00 | 0.00 | 0.00 | 28 | 1007.3 |
| 20260905221507 | 93 | 35 | 4.0 | 10.0 | 0.00 | 0.00 | 0.00 | 29 | 1007.4 |